x

Grays Reef - 40 Nm Southeast Of Savannah, Ga (41008) Wave Buoy

4:50am - Fri 25th Apr 2014 All times are EDT. -4 hours from GMT.

  • Sig Wave height 2.3ft
  • Swell Direction
  • Peak Period 9s
  • Average Period 5s
  • Wind
    11mph, 13mph gusts
  • Sea Temp 67°f
  • Air Temp 69°f
  • Sea Pressure 1013.3mb
  • Grays Reef - 40 Nm Southeast Of Savannah, Ga
  • Grays Reef - 40 Nm Southeast Of Savannah, Ga

More Historic Weather Station data

Upgrade to MSW Pro to gain access to the past 30 days of data for over 8000 Wavebouys and Weather Stations around the globe.

Join Pro

Comparision Forecast

View Surf forecast
   
Fri 04/25 4:50am 2.5ft 9s 5s 11 13 mph 1013.3mb 67f 69f
3:50am 2.5ft 6s 4s 11
mph
1013.3mb 67f 69f
2:50am 2.5ft 5s 4s 11 13 mph 1013.1mb 67f 70f
1:50am 2.5ft 6s 5s 18 22 mph 1013.6mb 68f 71f
12:50am 2.5ft 6s 5s 9 11 mph 1014.6mb 68f 70f
Thu 04/24 11:50pm 2.5ft 6s 5s 7
mph
1014.9mb 68f 69f
10:50pm 2.5ft 5s 5s 7
mph
1014.9mb 68f 69f
9:50pm 2.5ft 5s 5s 7
mph
1014.8mb 68f 69f
8:50pm 2ft 6s 5s 4 7 mph 1014.8mb 68f 69f
7:50pm 1.6ft 5s 5s 4
mph
1014.6mb 68f 69f
6:50pm 1.3ft 8s 5s 9
mph
1014.5mb 69f 70f
5:50pm 1ft 8s 5s 7 9 mph 1014.3mb 70f 71f
4:50pm 1ft 14s 5s 9 11 mph 1014.4mb 70f 71f
3:50pm 1ft 8s 6s 7 9 mph 1014.9mb 70f 71f
2:50pm 1ft 8s 6s 7 9 mph 1015.6mb 70f 71f
1:50pm 1ft 8s 6s 9
mph
1016mb 70f 70f
12:50pm 1.3ft 8s 7s 7
mph
1016.5mb 70f 71f
11:50am 1ft 8s 6s 7 9 mph 1016.9mb 69f 69f
10:50am 1ft 8s 7s 2
mph
1017mb 69f 69f
9:50am 1ft 8s 6s 4
mph
1016.6mb 67f 68f
8:50am 1ft 8s 6s 4 7 mph 1016mb 67f 68f
7:50am 1ft 9s 5s  -  2 mph 1015.2mb 67f 68f
6:50am 1ft 9s 5s 4
mph
1014.4mb 66f 67f
5:50am 1.3ft 9s 5s 7
mph
1013.5mb 67f 68f
4:50am 1ft 8s 5s 7 9 mph 1013.3mb 67f 68f
3:50am 1.3ft 8s 5s 7
mph
1013mb 67f 68f
2:50am 1.3ft 8s 5s 7 9 mph 1013.1mb 67f 68f
1:50am 1.3ft 8s 6s 9
mph
1013.3mb 67f 68f
12:50am 1.3ft 8s 5s 9
mph
1013.6mb 67f 69f
Wed 04/23 11:50pm 1.3ft 8s 6s 9
mph
1013.7mb 67f 69f
10:50pm 1.3ft 8s 6s 7 9 mph 1013.5mb 68f 69f
9:50pm 1.3ft 8s 6s 7 9 mph 1012.7mb 67f 69f
8:50pm 1.3ft 9s 7s 9
mph
1011.9mb 67f 69f
7:50pm 1.3ft 9s 7s 7 9 mph 1011.1mb 68f 69f
6:50pm 1.3ft 9s 6s 9
mph
1010.6mb 68f 70f
5:50pm 1.3ft 9s 6s 7
mph
1010.4mb 69f 70f
4:50pm 1.3ft 9s 5s 4 7 mph 1010.5mb 68f 70f
3:50pm 1.3ft 9s 5s 4 7 mph 1011mb 69f 70f
2:50pm 1.6ft 9s 5s  -  2 mph 1011.6mb 68f 70f
1:50pm 1.6ft 9s 5s 2
mph
1011.7mb 67f 69f
12:50pm 2ft 8s 5s 4
mph
1012.4mb 66f 67f
11:50am 1.6ft 8s 5s 4
mph
1013.1mb 66f 67f
10:50am 1.6ft 8s 5s 9
mph
1012.9mb 65f 66f
9:50am 2ft 9s 4s 11 13 mph 1012.4mb 65f 65f
8:50am 2ft 9s 4s 16 18 mph 1011.9mb 64f 65f
7:50am 2ft 9s 4s 13 16 mph 1011.6mb 64f 65f
6:50am 2ft 9s 4s 13
mph
1010.8mb 64f 65f
5:50am 2ft 9s 4s 13 16 mph 1010.1mb 64f 65f
4:50am 2ft 8s 5s 13 16 mph 1009.7mb 64f 65f
3:50am 2ft 9s 5s 11 13 mph 1009.5mb 64f 65f
2:50am 2.5ft 9s 5s 11 13 mph 1009.7mb 64f 65f
1:50am 2.5ft 8s 5s 9
mph
1009.9mb 64f 65f
12:50am 2.5ft 8s 5s 9 11 mph 1010mb 64f 66f
Tue 04/22 11:50pm 2.5ft 9s 5s 9
mph
1010.2mb 64f 66f
10:50pm 2.5ft 8s 5s 13 16 mph 1010.6mb 65f 68f
9:50pm 2.5ft 9s 5s 11 16 mph 1010.3mb 65f 67f
8:50pm 2.5ft 10s 5s 11 13 mph 1009.6mb 65f 67f
7:50pm 2.5ft 11s 5s 11 13 mph 1008.7mb 65f 67f
5:50pm 2.5ft 9s 5s 11 16 mph 1009.1mb 65f 67f
4:50pm 2.5ft 10s 5s 13 16 mph 1009.2mb 65f 68f
3:50pm 2.5ft 10s 5s 13 16 mph 1009.6mb 65f 67f
2:50pm 2.5ft 10s 6s 13 16 mph 1010.5mb 65f 66f
12:50pm 2.5ft 8s 6s 11 13 mph 1011.9mb 64f 65f
11:50am 3ft 8s 5s 9 11 mph 1012.8mb 64f 64f
10:50am 3ft 11s 6s 9 11 mph 1013.3mb 63f 64f
9:50am 3ft 10s 6s 11 13 mph 1013.6mb 63f 64f
8:50am 3ft 11s 6s 11 13 mph 1013.5mb 63f 64f
7:50am 2.5ft 10s 6s 9 11 mph 1013.5mb 63f 64f
6:50am 2.5ft 9s 7s 9 11 mph 1013.1mb 63f 64f
5:50am 2.5ft 11s 7s 11
mph
1012.9mb 63f 64f
4:50am 2.5ft 9s 7s 9 11 mph 1012.9mb 63f 64f
3:50am 3ft 13s 7s 9
mph
1012.9mb 63f 64f
2:50am 3ft 8s 7s 7 9 mph 1013.2mb 63f 64f
1:50am 3.5ft 8s 6s 7
mph
1013.8mb 64f 64f
12:50am 3.5ft 13s 6s 7
mph
1014.7mb 64f 64f
Mon 04/21 11:50pm 3.5ft 11s 6s 4 7 mph 1015.3mb 64f 64f
10:50pm 3.5ft 7s 6s 4 7 mph 1015.5mb 64f 64f
9:50pm 3.5ft 12s 6s 4 7 mph 1015.7mb 64f 64f
8:50pm 3.5ft 13s 6s 4 7 mph 1015.6mb 65f 65f
7:50pm 4ft 10s 6s 4
mph
1015.4mb 65f 66f
6:50pm 3.5ft 7s 6s 2
mph
1015.2mb 66f 67f
5:50pm 3.5ft 7s 6s 2
mph
1015.3mb 66f 66f
4:50pm 3.5ft 12s 6s 2 4 mph 1015.8mb 66f 66f
3:50pm 4ft 14s 6s 2
mph
1016.1mb 65f 65f
2:50pm 4.5ft 13s 6s 4
mph
1017mb 64f 63f
1:50pm 4.5ft 6s 5s 7 9 mph 1017.6mb 64f 62f
12:50pm 5ft 13s 5s 11 13 mph 1018.4mb 63f 62f
11:50am 5ft 13s 5s 16 18 mph 1018.9mb 63f 61f
10:50am 5ft 6s 5s 18 20 mph 1019mb 63f 61f